Terminal Aerodrome Forecast
Issued by NWS Cleveland, OH

Home | Current Version | Previous Version | Graphics & Text | Print | Product List | Glossary On
Versions: 1 2 3 4 5 6 7 8 9 10 11 12 13 14
000
FTUS41 KCLE 251253 AAA
TAFERI
TAF AMD
KERI 251253Z 2513/2612 22010KT P6SM VCSH SCT025 BKN050
      TEMPO 2513/2515 BKN025
     FM251500 23011KT P6SM VCTS BKN040CB
      TEMPO 2515/2518 3SM -TSRA BR OVC030CB
     FM251800 25010G18KT P6SM SCT040 BKN150
     FM252300 25008KT P6SM FEW040
     FM260800 33004KT P6SM FEW040=

USA.gov is the U.S. government's official web portal to all federal, state and local government web resources and services.